Hovedside
METAR-TAF:

METAR-TAF

Lufthavner :

Tartu lufthavn

Tartu, Estland

breddegrad: 58-18N, lengdegrad: 026-44E, høyde over havet: 59 m

Gjeldene værobservasjon

Denne rapporten ble laget for 40 minutter siden, klokken 19:50 UTC
Vind 10 kt fra Vest-sørvest
Temperatur 8°C
Luftfuktighet 87%
Trykk 1017 hPa
Sikt 10 km eller mer

METAR: EETU 141950Z AUTO 25010KT 9999 OVC048/// 08/06 Q1017

Tid: 22:30 (20:30 UTC)

Varsel

Denne rapporten ble laget for 23 timer og 30 minutter siden, klokken 21:00 UTC
Varsel gyldig fra 13. klokken 22 UTC til 14. klokken 04 UTC
Vind 14 kt fra Sør-sørøst
Sikt 10 km eller mer
Brutte skyer i en høyde av 3000 ft
Midlertidig
fra 13. klokken 22 UTC til 14. klokken 04 UTC
Sikt: 3000 m
Spredte skyer i en høyde av 1500 ft, Bygeskyer.
regnbyger

TAF: EETU 132100Z 1322/1404 16014KT 9999 BKN030 TEMPO 1322/1404 3000 SHRA BKN08 SCT015CB

Værobservasjoner og værvarsel for over 4000 flyplasser (METAR- og TAF-rapporter).

Tilgjengelige stasjoner er representert av de røde og gule prikkene på kartet.

Hold musepekeren over prikken for å se navnet på stasjonen.

Klikk så for å se værobservasjoner og -varsler.

For å forandre kartet kan du klikke på den grønne knappen med svart kryss for å zoome inn, på den grønne knappen med strek for å zoome ut, eller på de grønne pilene for å se tilstøtende kart.


METAR-TAF: